createdAt,value
2019-02-28T00:01:58.672Z,5.15
2019-02-28T00:04:31.980Z,5.25
2019-02-28T00:07:00.438Z,5.20
2019-02-28T00:09:30.371Z,4.83
2019-02-28T00:12:00.637Z,5.12
2019-02-28T00:14:30.550Z,4.65
2019-02-28T00:17:01.188Z,4.92
2019-02-28T00:19:31.058Z,4.62
2019-02-28T00:22:01.277Z,4.90
2019-02-28T00:24:31.148Z,5.92
2019-02-28T00:27:01.497Z,5.28
2019-02-28T00:29:33.754Z,5.83
2019-02-28T00:32:03.471Z,6.40
2019-02-28T00:34:36.358Z,6.50
2019-02-28T00:37:05.646Z,5.72
2019-02-28T00:39:35.683Z,5.05
2019-02-28T00:42:06.295Z,4.20
2019-02-28T00:44:38.916Z,5.00
2019-02-28T00:47:08.684Z,5.65
2019-02-28T00:50:34.762Z,4.87
2019-02-28T00:53:06.410Z,4.60
2019-02-28T00:55:36.487Z,5.33
2019-02-28T00:58:06.402Z,4.50
2019-02-28T01:00:38.063Z,4.90
2019-02-28T01:03:08.203Z,6.17
2019-02-28T01:05:38.078Z,4.75
2019-02-28T01:08:08.437Z,5.05
2019-02-28T01:10:39.432Z,5.00
2019-02-28T01:13:09.807Z,5.30
2019-02-28T01:15:44.495Z,5.47
2019-02-28T01:18:11.612Z,4.42
2019-02-28T01:20:43.949Z,5.00
2019-02-28T01:23:13.803Z,4.67
2019-02-28T01:25:43.578Z,4.67
2019-02-28T01:28:13.448Z,5.25
2019-02-28T01:30:43.346Z,5.05
2019-02-28T01:33:13.237Z,5.00
2019-02-28T01:35:43.167Z,5.53
2019-02-28T01:38:13.133Z,4.92
2019-02-28T01:40:42.992Z,4.65
2019-02-28T01:43:12.890Z,5.15
2019-02-28T01:45:44.227Z,5.25
2019-02-28T01:48:14.253Z,6.40
2019-02-28T01:50:44.130Z,5.15
2019-02-28T01:53:18.746Z,5.70
2019-02-28T01:55:45.974Z,5.60
2019-02-28T01:58:16.795Z,5.85
2019-02-28T02:00:47.258Z,4.83
2019-02-28T02:03:17.176Z,5.47
2019-02-28T02:05:48.300Z,4.90
2019-02-28T02:08:19.430Z,4.62
2019-02-28T02:10:56.019Z,4.97
2019-02-28T02:13:26.363Z,5.20
2019-02-28T02:15:56.538Z,5.17
2019-02-28T02:18:26.826Z,4.90
2019-02-28T02:20:57.436Z,4.87
2019-02-28T02:23:32.006Z,5.55
2019-02-28T02:26:02.277Z,4.72
2019-02-28T02:28:32.439Z,4.75
2019-02-28T02:31:02.616Z,5.35
2019-02-28T02:33:32.987Z,5.83
2019-02-28T02:36:03.150Z,5.40
2019-02-28T02:38:39.834Z,6.35
2019-02-28T02:41:05.480Z,4.90
2019-02-28T02:43:35.630Z,4.65
2019-02-28T02:46:06.181Z,5.62
2019-02-28T02:48:38.502Z,5.12
2019-02-28T02:51:30.588Z,5.87
2019-02-28T02:54:08.376Z,5.58
2019-02-28T02:56:41.999Z,5.95
2019-02-28T02:59:10.983Z,5.40
2019-02-28T03:01:42.207Z,6.08
2019-02-28T03:04:22.959Z,5.87
2019-02-28T03:06:55.474Z,5.33
2019-02-28T03:09:25.735Z,5.85
2019-02-28T03:12:16.456Z,5.90
2019-02-28T03:14:50.007Z,5.85
2019-02-28T03:17:46.386Z,6.40
2019-02-28T03:20:20.591Z,5.78
2019-02-28T03:22:50.344Z,5.05
2019-02-28T03:25:42.353Z,6.33
2019-02-28T03:28:14.022Z,5.33
2019-02-28T03:31:11.587Z,6.55
2019-02-28T03:33:30.829Z,5.12
2019-02-28T03:36:07.142Z,5.72
2019-02-28T03:38:37.442Z,5.97
2019-02-28T03:41:07.381Z,5.90
2019-02-28T03:43:42.659Z,6.35
2019-02-28T03:46:11.606Z,6.20
2019-02-28T03:48:41.857Z,6.85
2019-02-28T03:51:11.890Z,5.70
2019-02-28T03:53:43.049Z,6.47
2019-02-28T03:59:04.775Z,6.03
2019-02-28T04:01:45.653Z,6.20
2019-02-28T04:04:30.375Z,6.15
2019-02-28T04:07:24.872Z,6.05
2019-02-28T04:10:32.150Z,5.45
2019-02-28T04:12:59.253Z,6.00
2019-02-28T04:15:29.414Z,6.65
2019-02-28T04:18:06.686Z,5.90
2019-02-28T04:20:36.132Z,5.75
2019-02-28T04:23:09.798Z,5.55
2019-02-28T04:25:39.746Z,6.58
2019-02-28T04:28:17.237Z,6.22
2019-02-28T04:30:43.872Z,6.85
2019-02-28T04:33:13.561Z,5.83
2019-02-28T04:35:43.597Z,6.25
2019-02-28T04:38:14.594Z,5.97
2019-02-28T04:40:44.630Z,6.62
2019-02-28T04:43:14.656Z,6.97
2019-02-28T04:45:44.550Z,5.97
2019-02-28T04:48:14.701Z,6.90
2019-02-28T04:50:45.024Z,6.53
2019-02-28T04:53:15.032Z,5.92
2019-02-28T04:55:45.192Z,6.78
2019-02-28T04:58:15.326Z,5.30
2019-02-28T05:00:46.294Z,5.80
2019-02-28T05:03:16.365Z,5.20
2019-02-28T05:05:46.935Z,6.10
2019-02-28T05:08:17.637Z,6.35
2019-02-28T05:10:47.524Z,6.03
2019-02-28T05:13:17.769Z,6.12
2019-02-28T05:16:03.288Z,6.33
2019-02-28T05:18:43.864Z,6.35
2019-02-28T05:21:19.578Z,5.85
2019-02-28T05:24:07.661Z,5.60
2019-02-28T05:26:37.637Z,6.15
2019-02-28T05:29:07.817Z,6.10
2019-02-28T05:31:37.743Z,5.80
2019-02-28T05:34:07.657Z,5.17
2019-02-28T05:36:38.031Z,5.87
2019-02-28T05:39:08.902Z,6.17
2019-02-28T05:41:38.796Z,6.10
2019-02-28T05:44:08.731Z,5.62
2019-02-28T05:46:41.147Z,5.37
2019-02-28T05:49:11.136Z,5.97
2019-02-28T05:51:40.949Z,5.70
2019-02-28T05:54:15.887Z,6.30
2019-02-28T05:56:42.774Z,5.55
2019-02-28T05:59:12.952Z,6.10
2019-02-28T06:01:43.582Z,6.42
2019-02-28T06:04:14.972Z,5.30
2019-02-28T06:06:45.104Z,6.60
2019-02-28T06:09:15.151Z,6.85
2019-02-28T06:11:56.113Z,6.95
2019-02-28T06:14:27.545Z,6.28
2019-02-28T06:16:57.961Z,6.25
2019-02-28T06:19:30.265Z,5.50
2019-02-28T06:22:00.191Z,5.58
2019-02-28T06:24:50.371Z,5.58
2019-02-28T06:27:20.965Z,5.75
2019-02-28T06:29:57.291Z,6.33
2019-02-28T06:32:27.487Z,6.28
2019-02-28T06:34:59.845Z,6.47
2019-02-28T06:37:29.996Z,5.70
2019-02-28T06:40:00.930Z,6.62
2019-02-28T06:42:31.047Z,6.08
2019-02-28T06:45:02.703Z,5.47
2019-02-28T06:47:33.405Z,6.72
2019-02-28T06:50:03.867Z,6.50
2019-02-28T06:52:33.750Z,6.53
2019-02-28T06:55:04.101Z,6.42
2019-02-28T06:57:34.058Z,5.60
2019-02-28T07:00:05.122Z,6.12
2019-02-28T07:02:35.146Z,6.83
2019-02-28T07:05:05.421Z,5.85
2019-02-28T07:07:35.398Z,6.40
2019-02-28T07:10:09.668Z,6.50
2019-02-28T07:12:38.437Z,7.47
2019-02-28T07:15:08.755Z,11.18
2019-02-28T07:17:42.635Z,6.70
2019-02-28T07:20:12.656Z,6.05
2019-02-28T07:22:42.544Z,5.90
2019-02-28T07:25:13.824Z,6.55
2019-02-28T07:27:44.297Z,6.53
2019-02-28T07:30:18.720Z,6.10
2019-02-28T07:32:46.769Z,7.22
2019-02-28T07:35:16.813Z,7.90
2019-02-28T07:37:46.799Z,7.28
2019-02-28T07:40:17.482Z,6.80
2019-02-28T07:42:47.552Z,7.28
2019-02-28T07:45:17.530Z,7.30
2019-02-28T07:47:51.710Z,6.42
2019-02-28T07:50:38.857Z,7.12
2019-02-28T07:53:09.707Z,6.62
2019-02-28T07:55:39.776Z,6.70
2019-02-28T07:58:09.580Z,6.45
2019-02-28T08:00:39.462Z,6.62
2019-02-28T08:03:11.261Z,8.30
2019-02-28T08:05:41.685Z,7.05
2019-02-28T08:08:11.542Z,7.37
2019-02-28T08:10:41.456Z,7.83
2019-02-28T08:13:11.302Z,7.65
2019-02-28T08:15:41.106Z,7.50
2019-02-28T08:18:10.853Z,8.30
2019-02-28T08:20:42.218Z,7.67
2019-02-28T08:23:12.802Z,8.45
2019-02-28T08:25:43.522Z,9.90
2019-02-28T08:28:18.452Z,7.95
2019-02-28T08:30:55.013Z,8.83
2019-02-28T08:33:20.962Z,7.95
2019-02-28T08:35:50.934Z,8.45
2019-02-28T08:38:20.720Z,7.83
2019-02-28T08:40:51.603Z,8.53
2019-02-28T08:43:27.208Z,7.78
2019-02-28T08:45:53.494Z,8.63
2019-02-28T08:48:23.415Z,8.50
2019-02-28T08:50:55.766Z,8.78
2019-02-28T08:53:25.321Z,9.90
2019-02-28T08:55:55.327Z,11.00
2019-02-28T08:58:25.165Z,8.75
2019-02-28T09:00:55.147Z,9.13
2019-02-28T09:03:27.455Z,8.75
2019-02-28T09:05:56.843Z,9.70
2019-02-28T09:08:26.644Z,8.45
2019-02-28T09:10:56.622Z,8.28
2019-02-28T09:13:26.479Z,9.25
2019-02-28T09:15:56.513Z,8.98
2019-02-28T09:18:26.430Z,8.60
2019-02-28T09:20:56.242Z,9.55
2019-02-28T09:23:26.602Z,8.63
2019-02-28T09:25:57.621Z,9.10
2019-02-28T09:28:28.504Z,9.48
2019-02-28T09:31:01.311Z,8.20
2019-02-28T09:33:30.217Z,9.20
2019-02-28T09:36:00.113Z,8.70
2019-02-28T09:38:30.155Z,10.18
2019-02-28T09:41:01.405Z,9.40
2019-02-28T09:43:31.891Z,9.00
2019-02-28T09:46:01.889Z,8.33
2019-02-28T09:48:34.033Z,8.75
2019-02-28T09:51:03.627Z,8.85
2019-02-28T09:53:33.973Z,8.65
2019-02-28T09:56:08.833Z,8.60
2019-02-28T09:58:35.777Z,9.13
2019-02-28T10:01:05.759Z,10.40
2019-02-28T10:03:35.730Z,8.88
2019-02-28T10:06:05.644Z,9.90
2019-02-28T10:08:36.885Z,8.63
2019-02-28T10:11:07.373Z,8.80
2019-02-28T10:13:38.129Z,10.18
2019-02-28T10:16:08.119Z,9.98
2019-02-28T10:18:38.912Z,9.08
2019-02-28T10:21:09.828Z,9.38
2019-02-28T10:23:39.793Z,8.58
2019-02-28T10:26:09.737Z,10.93
2019-02-28T10:28:39.577Z,9.28
2019-02-28T10:31:09.482Z,8.18
2019-02-28T10:33:39.386Z,9.10
2019-02-28T10:36:12.898Z,8.98
2019-02-28T10:38:41.285Z,8.95
2019-02-28T10:41:11.404Z,9.20
2019-02-28T10:43:41.297Z,9.20
2019-02-28T10:46:13.329Z,9.50
2019-02-28T10:48:50.752Z,9.55
2019-02-28T10:51:14.855Z,8.17
2019-02-28T10:53:44.819Z,6.80
2019-02-28T10:56:14.661Z,8.23
2019-02-28T10:58:47.130Z,7.97
2019-02-28T11:01:17.334Z,7.83
2019-02-28T11:03:47.477Z,7.90
2019-02-28T11:06:17.359Z,8.07
2019-02-28T11:08:47.673Z,7.27
2019-02-28T11:11:18.270Z,8.10
2019-02-28T11:13:48.203Z,8.73
2019-02-28T11:16:20.495Z,8.20
2019-02-28T11:18:50.061Z,7.97
2019-02-28T11:21:20.755Z,7.37
2019-02-28T11:23:50.603Z,10.40
2019-02-28T11:26:20.522Z,9.17
2019-02-28T11:28:53.152Z,7.93
2019-02-28T11:31:23.224Z,9.57
2019-02-28T11:33:53.218Z,8.50
2019-02-28T11:36:23.932Z,8.03
2019-02-28T11:38:55.462Z,7.00
2019-02-28T11:41:25.448Z,7.23
2019-02-28T11:43:55.314Z,7.10
2019-02-28T11:46:25.212Z,7.03
2019-02-28T11:48:55.164Z,7.80
2019-02-28T11:51:27.643Z,8.27
2019-02-28T11:53:58.620Z,7.93
2019-02-28T11:56:29.449Z,8.00
2019-02-28T11:58:59.586Z,8.20
2019-02-28T12:01:29.589Z,7.87
2019-02-28T12:03:59.875Z,8.50
2019-02-28T12:06:29.743Z,7.50
2019-02-28T12:09:02.931Z,7.90
2019-02-28T12:11:33.496Z,9.93
2019-02-28T12:14:06.317Z,7.53
2019-02-28T12:16:36.491Z,9.40
2019-02-28T12:19:06.857Z,7.50
2019-02-28T12:21:37.946Z,8.27
2019-02-28T12:24:08.659Z,7.57
2019-02-28T12:26:38.511Z,7.50
2019-02-28T12:29:09.511Z,7.87
2019-02-28T12:31:40.483Z,6.80
2019-02-28T12:34:11.711Z,7.90
2019-02-28T12:36:50.236Z,7.27
2019-02-28T12:39:20.349Z,7.90
2019-02-28T12:41:50.208Z,8.30
2019-02-28T12:44:20.175Z,8.37
2019-02-28T12:46:50.151Z,7.20
2019-02-28T12:49:22.390Z,6.87
2019-02-28T12:51:52.552Z,9.00
2019-02-28T12:54:22.440Z,9.37
2019-02-28T12:56:52.338Z,8.60
2019-02-28T12:59:22.308Z,8.10
2019-02-28T13:01:52.249Z,8.63
2019-02-28T13:04:22.285Z,8.50
2019-02-28T13:06:55.591Z,7.90
2019-02-28T13:09:24.212Z,9.60
2019-02-28T13:11:54.169Z,10.00
2019-02-28T13:14:24.175Z,10.60
2019-02-28T13:16:54.588Z,9.50
2019-02-28T13:19:35.529Z,9.33
2019-02-28T13:22:05.503Z,8.00
2019-02-28T13:24:35.405Z,9.63
2019-02-28T13:27:09.875Z,9.50
2019-02-28T13:29:38.938Z,10.83
2019-02-28T13:32:08.907Z,10.33
2019-02-28T13:34:38.869Z,9.30
2019-02-28T13:37:09.067Z,9.73
2019-02-28T13:39:39.033Z,10.17
2019-02-28T13:42:09.081Z,10.20
2019-02-28T13:44:39.761Z,10.20
2019-02-28T13:47:10.707Z,9.50
2019-02-28T13:49:40.985Z,10.57
2019-02-28T13:52:19.103Z,10.73
2019-02-28T13:54:43.350Z,9.60
2019-02-28T13:57:13.698Z,9.73
2019-02-28T13:59:43.555Z,9.33
2019-02-28T14:02:14.176Z,10.10
2019-02-28T14:04:44.282Z,9.00
2019-02-28T14:07:16.676Z,9.30
2019-02-28T14:09:47.531Z,12.20
2019-02-28T14:12:20.774Z,9.73
2019-02-28T14:14:49.410Z,10.00
2019-02-28T14:17:19.853Z,10.20
2019-02-28T14:19:52.698Z,10.27
2019-02-28T14:22:22.536Z,10.10
2019-02-28T14:24:53.421Z,9.87
2019-02-28T14:27:25.023Z,11.30
2019-02-28T14:29:55.606Z,10.37
2019-02-28T14:32:25.747Z,9.63
2019-02-28T14:34:57.296Z,9.47
2019-02-28T14:37:28.199Z,10.30
2019-02-28T14:39:59.469Z,9.77
2019-02-28T14:42:29.362Z,8.20
2019-02-28T14:44:59.347Z,9.03
2019-02-28T14:47:29.611Z,8.63
2019-02-28T14:49:59.806Z,10.80
2019-02-28T14:52:29.753Z,8.93
2019-02-28T14:55:00.226Z,8.30
2019-02-28T14:57:30.492Z,9.27
2019-02-28T15:00:06.297Z,8.90
2019-02-28T15:02:32.533Z,7.67
2019-02-28T15:05:02.784Z,8.83
2019-02-28T15:07:35.273Z,9.80
2019-02-28T15:10:08.105Z,9.17
2019-02-28T15:12:38.582Z,10.17
2019-02-28T15:15:14.814Z,9.63
2019-02-28T15:17:44.499Z,9.47
2019-02-28T15:20:15.277Z,10.60
2019-02-28T15:22:45.197Z,9.50
2019-02-28T15:25:18.542Z,9.33
2019-02-28T15:27:49.203Z,10.80
2019-02-28T15:30:22.449Z,9.57
2019-02-28T15:32:54.405Z,9.43
2019-02-28T15:35:24.606Z,8.60
2019-02-28T15:37:54.607Z,8.70
2019-02-28T15:40:30.798Z,9.10
2019-02-28T15:43:00.938Z,7.97
2019-02-28T15:45:30.980Z,7.70
2019-02-28T15:48:01.071Z,7.77
2019-02-28T15:50:30.944Z,9.13
2019-02-28T15:53:01.402Z,9.50
2019-02-28T15:55:35.094Z,10.63
2019-02-28T15:58:05.882Z,11.40
2019-02-28T16:00:37.029Z,11.07
2019-02-28T16:03:07.059Z,11.40
2019-02-28T16:05:42.681Z,11.97
2019-02-28T16:08:10.612Z,12.50
2019-02-28T16:10:40.953Z,13.70
2019-02-28T16:13:10.992Z,13.93
2019-02-28T16:15:43.212Z,14.10
2019-02-28T16:18:13.156Z,14.40
2019-02-28T16:20:43.274Z,14.07
2019-02-28T16:23:13.296Z,12.57
2019-02-28T16:25:46.941Z,13.10
2019-02-28T16:28:15.267Z,15.90
2019-02-28T16:30:45.181Z,14.40
2019-02-28T16:33:15.231Z,14.13
2019-02-28T16:35:46.765Z,15.18
2019-02-28T16:38:17.259Z,13.18
2019-02-28T16:40:47.414Z,15.17
2019-02-28T16:43:20.895Z,15.70
2019-02-28T16:45:49.844Z,14.40
2019-02-28T16:48:19.927Z,15.10
2019-02-28T16:50:53.190Z,16.42
2019-02-28T16:53:23.843Z,15.55
2019-02-28T16:55:53.975Z,15.35
2019-02-28T16:58:23.952Z,17.00
2019-02-28T17:00:54.253Z,14.95
2019-02-28T17:03:24.245Z,15.58
2019-02-28T17:05:54.304Z,15.43
2019-02-28T17:08:26.216Z,14.28
2019-02-28T17:10:56.355Z,14.80
2019-02-28T17:13:40.771Z,12.73
2019-02-28T17:16:33.766Z,12.60
2019-02-28T17:19:08.663Z,13.55
2019-02-28T17:21:39.881Z,13.43
2019-02-28T17:24:12.196Z,13.45
2019-02-28T17:27:06.212Z,12.30
2019-02-28T17:29:48.329Z,12.45
2019-02-28T17:32:19.074Z,11.03
2019-02-28T17:34:50.172Z,11.33
2019-02-28T17:37:25.484Z,10.05
2019-02-28T17:39:52.328Z,10.90
2019-02-28T17:42:22.497Z,10.55
2019-02-28T17:45:18.030Z,9.38
2019-02-28T17:48:25.813Z,9.30
2019-02-28T17:51:38.243Z,11.78
2019-02-28T17:55:02.909Z,8.73
2019-02-28T17:58:06.920Z,11.35
2019-02-28T18:01:28.653Z,9.80
2019-02-28T18:05:00.811Z,10.00
2019-02-28T18:08:16.441Z,9.85
2019-02-28T18:11:54.789Z,10.48
2019-02-28T18:14:50.851Z,10.95
2019-02-28T18:18:15.636Z,10.70
2019-02-28T18:21:37.440Z,10.43
2019-02-28T18:24:41.161Z,12.90
2019-02-28T18:28:39.327Z,12.20
2019-02-28T18:31:13.285Z,11.63
2019-02-28T18:34:20.640Z,12.58
2019-02-28T18:36:51.767Z,13.80
2019-02-28T18:39:22.140Z,18.55
2019-02-28T18:41:52.533Z,11.90
2019-02-28T18:44:22.936Z,10.55
2019-02-28T18:46:53.126Z,9.33
2019-02-28T18:49:26.640Z,9.90
2019-02-28T18:51:55.380Z,9.20
2019-02-28T18:54:26.405Z,9.98
2019-02-28T18:56:56.553Z,8.23
2019-02-28T18:59:26.580Z,7.80
2019-02-28T19:01:56.508Z,7.00
2019-02-28T19:04:26.782Z,8.10
2019-02-28T19:06:56.937Z,6.30
2019-02-28T19:09:28.768Z,5.83
2019-02-28T19:12:02.606Z,6.08
2019-02-28T19:14:34.435Z,6.33
2019-02-28T19:17:04.371Z,5.33
2019-02-28T19:19:34.761Z,5.17
2019-02-28T19:22:04.702Z,5.28
2019-02-28T19:24:34.783Z,5.35
2019-02-28T19:27:05.122Z,5.87
2019-02-28T19:29:35.197Z,5.15
2019-02-28T19:32:05.145Z,5.45
2019-02-28T19:34:35.127Z,4.80
2019-02-28T19:37:05.217Z,4.40
2019-02-28T19:39:35.556Z,4.47
2019-02-28T19:42:05.656Z,4.00
2019-02-28T19:44:35.718Z,4.20
2019-02-28T19:47:05.824Z,3.60
2019-02-28T19:49:35.856Z,4.53
2019-02-28T19:52:05.866Z,3.80
2019-02-28T19:54:38.214Z,3.90
2019-02-28T19:57:09.234Z,4.00
2019-02-28T19:59:39.412Z,3.40
2019-02-28T20:02:09.578Z,3.70
2019-02-28T20:04:39.800Z,3.80
2019-02-28T20:07:21.336Z,3.25
2019-02-28T20:10:06.489Z,3.58
2019-02-28T20:12:36.426Z,4.05
2019-02-28T20:15:07.079Z,3.15
2019-02-28T20:17:39.462Z,4.55
2019-02-28T20:20:12.863Z,3.40
2019-02-28T20:22:43.149Z,3.85
2019-02-28T20:25:16.521Z,3.05
2019-02-28T20:27:49.215Z,3.50
2019-02-28T20:30:30.758Z,2.75
2019-02-28T20:33:01.514Z,3.22
2019-02-28T20:35:36.736Z,3.45
2019-02-28T20:41:53.663Z,2.98
2019-02-28T20:50:10.318Z,3.42
2019-02-28T20:53:05.496Z,3.05
2019-02-28T21:03:13.736Z,3.08
2019-02-28T21:06:04.745Z,3.08
2019-02-28T21:08:36.510Z,3.15
2019-02-28T21:11:46.422Z,3.58
2019-02-28T21:14:29.027Z,4.30
2019-02-28T21:18:01.751Z,2.85
2019-02-28T21:31:48.832Z,2.35
2019-02-28T21:34:51.512Z,2.58
2019-02-28T21:37:27.040Z,3.80
2019-02-28T21:53:24.785Z,3.58
2019-02-28T21:57:06.731Z,2.77
2019-02-28T21:59:39.274Z,2.85
2019-02-28T22:02:12.259Z,3.02
2019-02-28T22:04:45.232Z,2.20
2019-02-28T22:07:26.847Z,2.62
2019-02-28T22:09:57.234Z,2.40
2019-02-28T22:12:27.729Z,2.50
2019-02-28T22:15:03.755Z,2.17
2019-02-28T22:17:34.354Z,2.35
2019-02-28T22:20:04.681Z,2.52
2019-02-28T22:22:40.487Z,2.15
2019-02-28T22:25:11.684Z,2.42
2019-02-28T22:27:42.158Z,2.65
2019-02-28T22:30:49.669Z,2.40
2019-02-28T22:33:39.619Z,2.42
2019-02-28T22:36:14.672Z,2.37
2019-02-28T22:38:44.927Z,2.60
2019-02-28T22:41:15.484Z,2.12
2019-02-28T22:43:46.006Z,2.17
2019-02-28T22:46:19.201Z,2.52
2019-02-28T22:48:51.774Z,2.40
2019-02-28T22:51:23.564Z,2.30
2019-02-28T22:53:59.784Z,1.85
2019-02-28T22:56:30.427Z,1.82
2019-02-28T22:59:01.027Z,2.98
2019-02-28T23:01:32.182Z,2.37
2019-02-28T23:04:03.044Z,2.25
2019-02-28T23:06:39.214Z,1.67
2019-02-28T23:09:16.637Z,2.20
2019-02-28T23:11:47.124Z,2.50
2019-02-28T23:14:17.453Z,2.50
2019-02-28T23:16:50.718Z,2.25
2019-02-28T23:19:20.818Z,2.15
2019-02-28T23:21:50.918Z,2.70
2019-02-28T23:24:20.870Z,2.70
2019-02-28T23:27:13.517Z,2.67
2019-02-28T23:29:49.586Z,2.45
2019-02-28T23:32:34.033Z,2.30
2019-02-28T23:35:07.177Z,2.50
2019-02-28T23:37:37.053Z,2.80
2019-02-28T23:40:07.000Z,2.33
2019-02-28T23:42:37.270Z,2.05
2019-02-28T23:45:07.308Z,2.27
2019-02-28T23:47:37.189Z,1.95
2019-02-28T23:50:07.835Z,2.50
2019-02-28T23:52:37.975Z,2.60
2019-02-28T23:55:07.846Z,2.20
2019-02-28T23:57:37.708Z,2.42
